Time;durP1;ratioP1;P1;durP2;ratioP2;P2;SDS_P1;SDS_P2;PMS_P1;PMS_P2;Temp;Humidity;BMP_temperature;BMP_pressure;BME280_temperature;BME280_humidity;BME280_pressure;Samples;Min_cycle;Max_cycle;Signal;HPM_P1;HPM_P2
2022/04/09 00:01:28;;;;;;;2.60;1.93;;;15.90;52.40;;;16.17;42.94;94108.69;5058853;28;20917;-56
2022/04/09 00:03:55;;;;;;;5.50;2.33;;;15.90;52.50;;;16.15;42.97;94108.06;5054581;28;20992;-56
2022/04/09 00:06:23;;;;;;;3.17;1.93;;;15.90;52.60;;;16.13;42.97;94111.72;5059887;28;20560;-54
2022/04/09 00:08:50;;;;;;;4.70;2.40;;;15.90;52.60;;;16.11;43.07;94111.09;5058858;28;20451;-56
2022/04/09 00:11:17;;;;;;;2.80;2.00;;;15.80;52.70;;;16.06;43.10;94116.16;5059355;28;20471;-55
2022/04/09 00:13:44;;;;;;;2.60;1.87;;;15.80;52.90;;;16.03;43.07;94119.19;5060668;28;20461;-55
2022/04/09 00:16:13;;;;;;;3.63;1.47;;;15.80;52.80;;;15.99;43.41;94130.38;5063103;28;20501;-55
2022/04/09 00:18:43;;;;;;;3.10;2.40;;;15.70;53.00;;;15.94;43.43;94122.97;5056872;28;20443;-55
2022/04/09 00:21:10;;;;;;;2.37;1.70;;;15.70;53.20;;;15.89;43.51;94120.09;5064027;28;20463;-55
2022/04/09 00:23:38;;;;;;;3.00;2.43;;;15.70;53.30;;;15.85;43.71;94121.47;5060684;28;20457;-55
2022/04/09 00:26:05;;;;;;;1.67;1.57;;;15.60;53.40;;;15.79;43.70;94101.88;5062510;28;20474;-54
2022/04/09 00:28:32;;;;;;;2.17;1.97;;;15.50;53.60;;;15.72;43.87;94108.91;5054554;28;20491;-56
2022/04/09 00:31:00;;;;;;;1.97;1.60;;;15.50;53.70;;;15.67;44.30;94112.13;5055529;28;20479;-57
2022/04/09 00:33:28;;;;;;;2.50;1.70;;;15.40;53.70;;;15.64;43.94;94104.53;5058794;28;20451;-58
2022/04/09 00:35:56;;;;;;;5.33;2.30;;;15.40;53.90;;;15.60;44.03;94092.69;5059844;28;20472;-56
2022/04/09 00:38:25;;;;;;;6.20;2.40;;;15.40;54.10;;;15.58;44.16;94092.06;5060313;28;20455;-56
2022/04/09 00:40:52;;;;;;;8.70;2.20;;;15.30;54.20;;;15.55;44.19;94095.91;5057479;28;21051;-55
2022/04/09 00:43:19;;;;;;;6.93;2.03;;;15.30;54.30;;;15.53;44.03;94094.47;5057336;28;20452;-55
2022/04/09 00:45:49;;;;;;;5.57;1.83;;;15.30;54.40;;;15.52;44.14;94098.94;5054598;28;20475;-57
2022/04/09 00:48:17;;;;;;;3.57;2.00;;;15.30;54.50;;;15.50;44.46;94093.00;5058295;28;20603;-56
2022/04/09 00:50:45;;;;;;;2.63;1.83;;;15.20;54.60;;;15.49;44.34;94091.38;5056587;28;20823;-55
2022/04/09 00:53:13;;;;;;;6.40;2.00;;;15.20;54.70;;;15.48;44.49;94089.72;5053647;28;20460;-54
2022/04/09 00:58:24;;;;;;;2.40;1.80;;;15.20;54.90;;;15.46;44.06;94082.97;5059520;28;20449;-55
2022/04/09 01:00:51;;;;;;;2.27;1.60;;;15.20;54.80;;;15.43;44.42;94070.94;5059658;28;20471;-55
2022/04/09 01:03:19;;;;;;;2.03;1.57;;;15.20;54.90;;;15.41;44.49;94079.06;5064832;28;20451;-59
2022/04/09 01:05:49;;;;;;;13.03;2.67;;;15.20;55.10;;;15.38;44.54;94082.09;5059872;28;20486;-56
2022/04/09 01:08:16;;;;;;;4.07;2.40;;;15.10;55.30;;;15.36;44.57;94078.78;5060070;28;20583;-56
2022/04/09 01:10:47;;;;;;;3.77;2.10;;;15.10;55.30;;;15.32;44.91;94072.25;5059197;28;20923;-57
2022/04/09 01:13:14;;;;;;;5.17;2.10;;;15.10;55.50;;;15.29;44.81;94064.69;5059908;28;20453;-56
2022/04/09 01:15:42;;;;;;;5.10;2.50;;;15.10;55.90;;;15.27;44.79;94064.03;5062217;28;21002;-56
2022/04/09 01:18:09;;;;;;;3.43;2.07;;;15.00;55.80;;;15.22;45.08;94061.94;5054354;28;20447;-56
2022/04/09 01:20:37;;;;;;;7.97;2.60;;;15.00;55.80;;;15.20;44.87;94063.16;5054613;28;20475;-56
2022/04/09 01:23:05;;;;;;;2.33;1.70;;;15.00;55.80;;;15.16;45.43;94068.00;5062006;28;20473;-56
2022/04/09 01:25:33;;;;;;;3.50;2.20;;;14.90;56.50;;;15.12;45.76;94069.41;5058827;28;20586;-56
2022/04/09 01:28:00;;;;;;;2.10;2.00;;;14.90;56.80;;;15.07;45.73;94077.06;5056484;28;20801;-55
2022/04/09 01:30:27;;;;;;;4.70;2.33;;;14.80;56.90;;;15.03;45.78;94059.94;5051822;28;20533;-55
2022/04/09 01:32:55;;;;;;;2.40;2.03;;;14.80;57.00;;;14.97;45.80;94064.13;5055616;28;20452;-56
2022/04/09 01:35:22;;;;;;;6.10;2.60;;;14.70;56.90;;;14.91;46.15;94059.56;5059140;28;20831;-56
2022/04/09 01:37:49;;;;;;;8.57;1.70;;;14.70;57.70;;;14.86;46.13;94064.63;5054763;28;20452;-56
2022/04/09 01:40:18;;;;;;;2.50;2.00;;;14.60;57.30;;;14.82;46.09;94056.22;5060941;28;20487;-56
2022/04/09 01:42:45;;;;;;;3.67;1.90;;;14.60;57.20;;;14.79;46.09;94056.59;5061524;28;20455;-55
2022/04/09 01:45:12;;;;;;;2.77;1.83;;;14.60;57.40;;;14.76;46.18;94066.72;5058694;28;20475;-56
2022/04/09 01:47:42;;;;;;;2.43;1.80;;;14.50;57.50;;;14.73;46.08;94075.03;5060479;28;20903;-54
2022/04/09 01:50:11;;;;;;;3.93;2.20;;;14.50;57.60;;;14.67;46.23;94066.84;5059247;28;20458;-56
2022/04/09 01:52:38;;;;;;;5.33;1.30;;;14.50;57.90;;;14.68;46.13;94070.31;5055396;28;20979;-57
2022/04/09 01:55:07;;;;;;;4.90;1.67;;;14.50;57.90;;;14.66;46.19;94078.44;5058876;28;20472;-54
2022/04/09 01:57:35;;;;;;;3.07;1.93;;;14.40;57.90;;;14.65;45.86;94081.25;5053669;28;20539;-56
2022/04/09 02:00:03;;;;;;;4.70;1.80;;;14.40;57.80;;;14.63;46.29;94077.97;5057349;28;20479;-54
2022/04/09 02:02:30;;;;;;;1.40;1.30;;;14.40;58.10;;;14.60;46.23;94073.88;5059968;28;20462;-55
2022/04/09 02:04:57;;;;;;;1.70;1.60;;;14.40;58.10;;;14.57;46.44;94074.22;5063941;28;20482;-55
2022/04/09 02:07:26;;;;;;;3.83;1.87;;;14.30;58.30;;;14.52;46.77;94073.94;5048579;28;20491;-56
2022/04/09 02:09:53;;;;;;;1.93;1.50;;;14.30;58.50;;;14.50;46.45;94081.22;5055122;28;20467;-56
2022/04/09 02:12:21;;;;;;;1.70;1.60;;;14.30;58.70;;;14.48;46.46;94072.66;5055458;28;20722;-56
2022/04/09 02:14:49;;;;;;;4.27;1.47;;;14.30;58.80;;;14.47;46.39;94073.69;5053543;28;20475;-57
2022/04/09 02:17:17;;;;;;;6.50;2.00;;;14.20;58.80;;;14.46;46.64;94077.31;5058183;28;20787;-57
2022/04/09 02:19:44;;;;;;;1.53;1.30;;;14.20;58.90;;;14.44;47.02;94074.06;5053180;28;20824;-56
2022/04/09 02:22:11;;;;;;;3.57;1.47;;;14.20;59.40;;;14.41;47.20;94071.78;5056354;28;20454;-56
2022/04/09 02:24:40;;;;;;;1.60;1.40;;;14.20;59.70;;;14.38;47.08;94072.94;5057712;28;20532;-57
2022/04/09 02:27:07;;;;;;;1.30;1.20;;;14.20;60.40;;;14.34;47.40;94072.50;5054141;28;20456;-56
2022/04/09 02:29:34;;;;;;;1.30;1.20;;;14.10;59.80;;;14.30;47.05;94062.47;5054461;28;21113;-57
2022/04/09 02:32:05;;;;;;;3.33;1.87;;;14.10;59.80;;;14.27;47.24;94055.72;5054977;28;20439;-56
2022/04/09 02:34:32;;;;;;;8.93;1.37;;;14.10;59.80;;;14.26;47.31;94071.75;5058713;28;20467;-56
2022/04/09 02:37:01;;;;;;;5.53;1.47;;;14.10;60.30;;;14.24;47.26;94064.00;5053024;28;20448;-56
2022/04/09 02:39:28;;;;;;;3.17;2.07;;;14.00;59.80;;;14.23;46.94;94062.34;5050297;28;20451;-58
2022/04/09 02:41:55;;;;;;;2.57;2.07;;;14.00;59.80;;;14.23;47.35;94065.00;5050925;28;20918;-55
2022/04/09 02:44:24;;;;;;;3.73;2.00;;;14.00;60.30;;;14.21;48.02;94053.78;5053659;28;20505;-56
2022/04/09 02:46:51;;;;;;;4.83;2.07;;;14.00;61.20;;;14.17;47.65;94052.50;5058201;28;20459;-56
2022/04/09 02:49:20;;;;;;;3.10;1.83;;;14.00;60.90;;;14.10;47.72;94057.72;5055461;28;20494;-56
2022/04/09 02:51:47;;;;;;;3.40;1.67;;;13.90;61.00;;;14.07;48.13;94046.69;5060046;28;20899;-55
2022/04/09 02:54:15;;;;;;;6.23;2.27;;;13.80;61.30;;;14.03;48.03;94048.03;5060914;28;20447;-56
2022/04/09 02:56:43;;;;;;;5.57;2.27;;;13.80;61.80;;;13.99;48.18;94044.94;5057470;28;20470;-56
2022/04/09 02:59:12;;;;;;;5.37;1.60;;;13.80;62.30;;;13.94;48.03;94048.13;5054360;28;21070;-56
2022/04/09 03:01:39;;;;;;;3.80;2.10;;;13.70;62.20;;;13.89;48.39;94053.13;5057971;28;20482;-57
2022/04/09 03:04:07;;;;;;;3.87;2.00;;;13.70;62.80;;;13.86;48.72;94050.84;5057946;28;20812;-56
2022/04/09 03:06:35;;;;;;;3.37;1.80;;;13.70;63.10;;;13.83;48.55;94059.13;5055356;28;20479;-56
2022/04/09 03:09:03;;;;;;;7.87;2.27;;;13.60;62.90;;;13.80;48.48;94047.09;5057575;28;20494;-54
2022/04/09 03:11:30;;;;;;;2.77;1.80;;;13.60;63.10;;;13.76;48.78;94045.81;5056158;28;20510;-56
2022/04/09 03:13:57;;;;;;;2.07;1.80;;;13.60;63.60;;;13.73;48.67;94051.47;5051631;28;20857;-55
2022/04/09 03:16:25;;;;;;;7.70;2.03;;;13.50;62.90;;;13.70;48.90;94051.81;5060298;28;20471;-57
2022/04/09 03:18:52;;;;;;;6.00;1.77;;;13.50;63.50;;;13.68;48.81;94050.34;5050319;28;20456;-56
2022/04/09 03:21:19;;;;;;;8.57;2.00;;;13.50;63.90;;;13.65;48.82;94045.41;5056738;28;20955;-58
2022/04/09 03:23:48;;;;;;;5.10;1.70;;;13.50;63.90;;;13.61;49.19;94037.03;5055717;28;20620;-56
2022/04/09 03:26:15;;;;;;;5.90;2.07;;;13.40;64.40;;;13.58;49.11;94042.69;5051859;28;20467;-56
2022/04/09 03:28:43;;;;;;;7.80;1.50;;;13.40;64.90;;;13.55;49.47;94040.41;5049648;28;20487;-54
2022/04/09 03:31:10;;;;;;;3.50;2.20;;;13.40;65.30;;;13.52;49.87;94038.09;5055332;28;20478;-55
2022/04/09 03:33:37;;;;;;;2.03;1.90;;;13.30;66.20;;;13.49;49.37;94044.56;5057891;28;20447;-55
2022/04/09 03:36:05;;;;;;;2.27;2.10;;;13.30;65.30;;;13.46;49.47;94042.28;5060338;28;20475;-55
2022/04/09 03:38:32;;;;;;;7.40;2.03;;;13.30;65.60;;;13.40;49.13;94030.63;5058769;28;21190;-54
2022/04/09 03:41:01;;;;;;;2.70;1.50;;;13.20;65.30;;;13.39;49.99;94036.06;5055633;28;20468;-56
2022/04/09 03:43:29;;;;;;;4.70;2.20;;;13.20;66.10;;;13.34;50.06;94030.50;5062878;28;20504;-57
2022/04/09 03:45:56;;;;;;;3.50;2.13;;;13.10;66.60;;;13.29;50.32;94036.28;5060271;28;20475;-54
2022/04/09 03:48:23;;;;;;;6.43;1.87;;;13.10;66.80;;;13.24;50.21;94041.28;5060684;28;20494;-56
2022/04/09 03:50:50;;;;;;;2.43;2.07;;;13.00;66.00;;;13.20;50.55;94043.44;5053218;28;20525;-57
2022/04/09 03:53:20;;;;;;;6.10;2.23;;;13.00;67.00;;;13.16;50.62;94028.94;5056541;28;20894;-57
2022/04/09 03:55:47;;;;;;;22.00;6.30;;;13.00;67.90;;;13.11;50.32;94031.31;5061683;28;20462;-56
2022/04/09 03:58:17;;;;;;;6.30;2.80;;;13.00;67.50;;;13.07;50.21;94030.84;5060907;28;20475;-57
2022/04/09 04:00:45;;;;;;;6.30;2.17;;;12.90;67.10;;;13.07;50.48;94027.38;5058816;28;20479;-54
2022/04/09 04:03:12;;;;;;;3.17;2.17;;;12.90;67.90;;;13.08;50.80;94034.28;5053968;28;20539;-56
2022/04/09 04:05:40;;;;;;;4.20;2.53;;;12.90;68.30;;;13.07;50.32;94030.00;5054089;28;20490;-55
2022/04/09 04:08:08;;;;;;;3.20;1.80;;;12.90;68.00;;;13.09;50.36;94031.47;5060057;28;20485;-54
2022/04/09 04:10:37;;;;;;;9.90;2.30;;;12.90;67.80;;;13.12;50.36;94019.75;5058375;28;20817;-55
2022/04/09 04:13:05;;;;;;;4.07;2.30;;;12.90;68.60;;;13.15;50.63;94024.69;5064644;28;20462;-56
2022/04/09 04:15:33;;;;;;;4.57;2.70;;;13.00;68.40;;;13.16;50.24;94028.94;5054197;28;20966;-57
2022/04/09 04:18:01;;;;;;;7.73;2.50;;;12.90;68.00;;;13.17;50.70;94030.59;5057591;28;20443;-57
2022/04/09 04:20:28;;;;;;;12.23;2.90;;;13.00;67.90;;;13.13;50.46;94031.94;5057809;28;20467;-57
2022/04/09 04:22:56;;;;;;;7.17;2.30;;;12.90;68.20;;;13.12;50.37;94035.59;5059374;28;21027;-55
2022/04/09 04:25:23;;;;;;;45.30;2.97;;;12.90;68.10;;;13.13;50.64;94033.78;5063121;28;20467;-55
2022/04/09 04:27:50;;;;;;;9.00;2.90;;;12.90;68.20;;;13.16;50.63;94028.13;5059281;28;20458;-57
2022/04/09 04:30:18;;;;;;;7.37;4.10;;;12.90;68.60;;;13.11;50.93;94036.59;5054016;28;20468;-57
2022/04/09 04:32:47;;;;;;;12.50;3.27;;;13.00;69.20;;;12.99;50.33;94032.72;5058120;28;20782;-55
2022/04/09 04:35:14;;;;;;;13.40;3.20;;;12.90;68.40;;;12.86;51.82;94028.81;5055846;28;20472;-57
2022/04/09 04:37:43;;;;;;;6.97;2.90;;;12.80;70.20;;;12.76;51.62;94033.50;5053196;28;20494;-57
2022/04/09 04:40:11;;;;;;;4.93;3.20;;;12.70;70.00;;;12.71;51.53;94030.56;5053111;28;20468;-57
2022/04/09 04:42:38;;;;;;;13.27;4.47;;;12.60;70.30;;;12.68;51.30;94039.63;5054709;28;20804;-55
2022/04/09 04:45:07;;;;;;;6.77;3.07;;;12.50;69.90;;;12.69;51.71;94024.66;5058564;28;20470;-55
2022/04/09 04:47:42;;;;;;;8.90;3.03;;;12.50;70.90;;;12.77;51.68;94021.97;5054097;28;21053;-56
2022/04/09 04:50:11;;;;;;;9.73;3.53;;;12.60;71.60;;;12.95;51.82;94034.03;5052894;28;20999;-54
2022/04/09 04:52:39;;;;;;;10.00;3.40;;;12.70;72.00;;;13.08;51.73;94021.09;5052881;28;20825;-56
2022/04/09 04:55:08;;;;;;;6.33;3.00;;;12.90;71.60;;;13.19;51.26;94025.16;5057841;28;20867;-55
2022/04/09 04:57:46;;;;;;;4.77;2.50;;;12.90;70.70;;;13.26;50.90;94033.97;5060788;28;20478;-56
2022/04/09 05:00:16;;;;;;;7.53;3.27;;;13.00;70.40;;;13.33;51.10;94023.56;5052998;28;20618;-56
2022/04/09 05:02:43;;;;;;;8.73;3.60;;;13.10;70.30;;;13.36;50.76;94024.03;5060253;28;20455;-55
2022/04/09 05:05:12;;;;;;;10.23;3.90;;;13.20;70.60;;;13.40;51.00;94014.78;5054247;28;20478;-55
2022/04/09 05:07:43;;;;;;;6.10;2.67;;;13.20;70.50;;;13.47;51.43;94003.50;5059011;28;20968;-57
2022/04/09 05:10:13;;;;;;;5.43;3.40;;;13.20;70.60;;;13.50;50.83;94014.50;5057094;28;20563;-54
2022/04/09 05:12:41;;;;;;;6.40;3.40;;;13.30;70.10;;;13.55;51.13;94021.91;5058987;28;20508;-56
2022/04/09 05:15:10;;;;;;;12.70;4.03;;;13.30;70.30;;;13.58;50.78;94010.97;5058967;28;20897;-54
2022/04/09 05:17:37;;;;;;;3.73;3.40;;;13.40;70.30;;;13.64;50.62;94004.97;5059252;28;20455;-56
2022/04/09 05:20:06;;;;;;;9.90;3.73;;;13.40;69.90;;;13.70;50.66;94003.44;5056798;28;20497;-56
2022/04/09 05:22:36;;;;;;;8.07;3.37;;;13.50;69.90;;;13.78;50.54;94016.56;5061420;28;20868;-55
2022/04/09 05:25:04;;;;;;;6.70;3.47;;;13.50;69.90;;;13.89;50.52;94018.75;5058004;28;20466;-56
2022/04/09 05:27:31;;;;;;;9.60;3.47;;;13.60;70.90;;;14.06;50.97;94013.31;5051417;28;20538;-58
2022/04/09 05:29:59;;;;;;;5.37;3.27;;;13.80;70.70;;;14.23;49.97;94014.75;5053724;28;20834;-57
2022/04/09 05:32:26;;;;;;;7.90;4.10;;;14.00;70.10;;;14.40;50.13;94007.44;5056296;28;20874;-55
2022/04/09 05:34:53;;;;;;;11.30;5.07;;;14.10;70.30;;;14.67;50.46;94015.72;5061355;28;20482;-55
2022/04/09 05:37:21;;;;;;;11.40;5.77;;;14.30;70.40;;;14.87;49.93;94013.28;5048981;28;20452;-56
2022/04/09 05:39:49;;;;;;;9.33;5.27;;;14.60;69.80;;;15.12;49.36;94008.47;5052332;28;20889;-56
2022/04/09 05:42:17;;;;;;;10.60;5.23;;;14.80;69.00;;;15.41;48.98;94014.63;5055945;28;20854;-55
2022/04/09 05:44:44;;;;;;;18.70;6.20;;;15.00;68.00;;;15.72;48.40;94009.00;5058492;28;20841;-54
2022/04/09 05:47:11;;;;;;;14.17;5.07;;;15.30;67.30;;;15.98;47.64;94015.50;5054286;28;20994;-54
2022/04/09 05:49:38;;;;;;;10.63;5.00;;;15.60;66.10;;;16.17;47.65;94010.53;5051372;28;20499;-55
2022/04/09 05:52:07;;;;;;;22.77;4.57;;;15.80;65.40;;;16.33;47.07;94006.72;5052078;28;20483;-54
2022/04/09 05:54:34;;;;;;;9.90;3.73;;;16.00;64.60;;;16.46;46.97;94007.59;5057433;28;20463;-55
2022/04/09 05:57:05;;;;;;;14.30;4.00;;;16.10;64.60;;;16.57;46.66;94010.72;5058705;28;20583;-55
2022/04/09 05:59:33;;;;;;;8.40;3.87;;;16.20;63.40;;;16.70;46.59;94021.41;5059930;28;20462;-56
2022/04/09 06:02:00;;;;;;;19.93;5.20;;;16.40;63.10;;;16.87;46.24;94013.09;5051087;28;20455;-56
2022/04/09 06:04:27;;;;;;;10.17;4.77;;;16.50;62.90;;;17.02;46.07;94019.06;5056350;28;20578;-56
2022/04/09 06:06:55;;;;;;;10.00;4.57;;;16.70;62.80;;;17.18;45.70;94017.88;5059108;28;20459;-58
2022/04/09 06:09:22;;;;;;;9.60;4.60;;;16.80;61.70;;;17.36;45.65;94014.63;5057347;28;20491;-55
2022/04/09 06:11:50;;;;;;;10.00;3.77;;;17.00;61.20;;;17.49;45.15;94001.38;5054662;28;20967;-57
2022/04/09 06:14:19;;;;;;;10.77;4.30;;;17.10;60.90;;;17.64;44.80;94010.97;5056966;28;20466;-61
2022/04/09 06:16:46;;;;;;;11.00;3.20;;;17.20;59.80;;;17.69;44.63;94008.50;5055502;28;20458;-56
2022/04/09 06:19:13;;;;;;;11.13;3.07;;;17.30;59.50;;;17.67;44.52;94005.25;5058168;28;20447;-57
2022/04/09 06:21:40;;;;;;;11.40;3.40;;;17.30;59.20;;;17.67;44.57;93999.94;5054764;28;20455;-57
2022/04/09 06:24:08;;;;;;;10.00;3.00;;;17.30;59.30;;;17.74;44.96;94000.75;5054473;28;20443;-57
2022/04/09 06:26:35;;;;;;;8.60;2.47;;;17.40;59.30;;;17.83;44.94;93993.38;5051927;28;20483;-56
2022/04/09 06:29:03;;;;;;;3.30;2.30;;;17.50;59.20;;;17.94;44.60;93994.59;5057727;28;20487;-56
2022/04/09 06:31:32;;;;;;;11.23;3.47;;;17.60;58.90;;;18.07;44.56;93989.28;5055698;28;20566;-55
2022/04/09 06:33:59;;;;;;;7.70;3.27;;;17.70;58.60;;;18.19;44.07;93994.78;5054517;28;20958;-58
2022/04/09 06:36:27;;;;;;;9.57;2.77;;;17.80;58.10;;;18.27;43.70;93998.03;5049283;28;20859;-55
2022/04/09 06:38:54;;;;;;;8.47;3.03;;;17.90;58.20;;;18.37;43.99;93999.44;5052182;28;20527;-56
2022/04/09 06:41:21;;;;;;;12.97;3.70;;;18.00;57.80;;;18.49;43.61;94005.75;5053294;28;20472;-53
2022/04/09 06:43:49;;;;;;;9.87;3.23;;;18.10;57.80;;;18.63;43.31;93999.34;5057620;28;20534;-54
2022/04/09 06:46:16;;;;;;;3.67;2.57;;;18.20;57.60;;;18.77;43.64;94000.09;5054359;28;20480;-55
2022/04/09 06:48:45;;;;;;;10.23;2.80;;;18.40;57.40;;;18.92;43.61;94002.53;5051222;28;20458;-54
2022/04/09 06:51:12;;;;;;;9.00;4.30;;;18.50;57.30;;;19.03;42.97;94009.03;5058191;28;20557;-56
2022/04/09 06:53:39;;;;;;;3.87;3.40;;;18.60;56.80;;;19.18;43.25;94003.41;5056245;28;20443;-56
2022/04/09 06:56:07;;;;;;;14.23;4.50;;;18.80;56.80;;;19.29;42.23;94010.72;5058093;28;20475;-56
2022/04/09 06:58:34;;;;;;;15.43;5.23;;;18.90;56.10;;;19.31;42.00;94011.31;5057907;28;20470;-57
2022/04/09 07:01:02;;;;;;;7.27;5.00;;;18.90;55.50;;;19.39;42.40;94015.56;5049933;28;20525;-56
2022/04/09 07:03:29;;;;;;;20.83;4.80;;;19.00;55.40;;;19.53;41.85;94011.81;5053260;28;20446;-57
2022/04/09 07:05:58;;;;;;;7.73;4.07;;;19.10;55.10;;;19.66;41.75;94012.75;5060171;28;20475;-57
2022/04/09 07:08:26;;;;;;;11.73;3.57;;;19.20;54.70;;;19.75;41.63;94011.44;5060725;28;20459;-57
2022/04/09 07:10:53;;;;;;;9.13;3.50;;;19.30;54.00;;;19.85;41.37;94010.97;5062317;28;20494;-55
2022/04/09 07:13:20;;;;;;;19.03;5.00;;;19.40;53.80;;;19.98;40.95;94013.50;5050637;28;20448;-54
2022/04/09 07:15:47;;;;;;;11.17;3.57;;;19.50;53.30;;;20.09;40.52;94011.16;5056965;28;21054;-55
2022/04/09 07:18:15;;;;;;;7.77;4.17;;;19.60;52.90;;;20.25;40.57;94010.59;5061632;28;20806;-55
2022/04/09 07:20:44;;;;;;;4.40;3.20;;;19.80;52.90;;;20.46;39.62;94001.31;5057688;28;20840;-54
2022/04/09 07:23:12;;;;;;;7.30;3.33;;;20.00;52.10;;;20.62;39.24;93999.94;5057391;28;20469;-55
2022/04/09 07:25:42;;;;;;;9.57;3.77;;;20.10;51.40;;;20.74;39.50;93992.00;5055022;28;20487;-56
2022/04/09 07:28:09;;;;;;;9.40;3.10;;;20.30;51.20;;;20.82;38.93;93991.72;5065025;28;20814;-57
2022/04/09 07:30:36;;;;;;;5.40;3.10;;;20.40;50.90;;;20.82;38.79;93989.03;5061099;28;20497;-55
2022/04/09 07:33:04;;;;;;;12.73;1.70;;;20.40;50.20;;;20.80;38.18;93995.63;5058812;28;20451;-56
2022/04/09 07:35:31;;;;;;;3.57;1.80;;;20.40;49.50;;;20.77;38.28;93994.22;5056179;28;20467;-56
2022/04/09 07:38:00;;;;;;;20.83;2.50;;;20.40;49.00;;;20.76;36.97;93995.28;5055256;28;20448;-55
2022/04/09 07:40:28;;;;;;;4.00;1.83;;;20.40;47.60;;;20.78;37.10;93998.53;5057541;28;20471;-55
2022/04/09 07:42:56;;;;;;;3.10;1.70;;;20.40;48.10;;;20.82;37.48;93994.38;5059776;28;20496;-55
2022/04/09 07:45:24;;;;;;;9.90;1.27;;;20.50;48.30;;;20.92;37.40;93993.84;5059294;28;20463;-55
2022/04/09 07:47:53;;;;;;;1.10;0.90;;;20.50;47.80;;;20.99;36.86;94002.59;5056794;28;20461;-55
2022/04/09 07:50:21;;;;;;;4.50;1.40;;;20.60;47.50;;;21.10;36.85;93996.47;5053892;28;20574;-55
2022/04/09 07:52:48;;;;;;;5.30;1.60;;;20.70;47.40;;;21.27;36.58;93996.66;5058945;28;20448;-56
2022/04/09 07:55:16;;;;;;;1.50;1.20;;;20.80;47.20;;;21.57;36.47;93998.50;5058627;28;20475;-57
2022/04/09 07:57:45;;;;;;;4.50;1.80;;;21.10;47.20;;;21.83;36.03;93983.06;5058815;28;20974;-55
2022/04/09 08:00:13;;;;;;;5.43;1.73;;;21.40;46.60;;;22.08;34.58;93993.56;5055439;28;20576;-56
2022/04/09 08:02:40;;;;;;;3.43;1.60;;;21.70;45.30;;;22.41;34.98;93994.03;5057117;28;20462;-56
2022/04/09 08:05:10;;;;;;;4.50;1.40;;;22.00;45.20;;;22.77;35.40;93992.09;5063097;28;20475;-56
2022/04/09 08:07:37;;;;;;;5.80;1.70;;;22.40;45.50;;;23.13;33.92;93988.28;5059010;28;20469;-55
2022/04/09 08:10:05;;;;;;;7.30;1.70;;;22.80;45.10;;;23.34;34.26;93991.34;5054396;28;20841;-56
2022/04/09 08:12:33;;;;;;;4.37;1.97;;;23.00;44.70;;;23.48;33.99;93995.34;5061128;28;20482;-56
2022/04/09 08:15:02;;;;;;;2.00;1.40;;;23.10;44.20;;;23.73;33.64;93996.84;5063133;28;20880;-56
2022/04/09 08:17:29;;;;;;;3.60;1.53;;;23.40;44.20;;;23.89;33.50;93987.19;5058667;28;20443;-56
2022/04/09 08:19:58;;;;;;;6.93;1.53;;;23.60;43.70;;;23.95;33.52;93991.56;5060114;28;20600;-55
2022/04/09 08:22:27;;;;;;;3.93;1.77;;;23.70;43.30;;;23.93;32.93;93993.69;5054472;28;20547;-54
2022/04/09 08:24:54;;;;;;;5.47;2.30;;;23.70;42.80;;;23.99;32.54;93979.28;5053084;28;20934;-56
2022/04/09 08:27:22;;;;;;;3.40;1.83;;;23.80;42.50;;;24.09;32.76;93981.31;5055103;28;20986;-55
2022/04/09 08:29:49;;;;;;;6.23;1.40;;;23.90;42.40;;;24.26;32.68;93981.28;5059651;28;20495;-55
2022/04/09 08:32:18;;;;;;;1.50;1.30;;;24.00;42.60;;;24.46;33.02;93970.84;5056163;28;20556;-54
2022/04/09 08:34:46;;;;;;;4.30;1.60;;;24.20;42.90;;;24.75;33.14;93972.56;5059269;28;20558;-56
2022/04/09 08:37:13;;;;;;;6.80;1.90;;;24.50;42.60;;;24.95;32.39;93967.41;5060175;28;20455;-55
2022/04/09 08:39:40;;;;;;;4.80;1.80;;;24.70;42.60;;;25.12;32.33;93967.34;5061706;28;20482;-56
2022/04/09 08:42:08;;;;;;;2.17;1.50;;;24.90;41.90;;;25.23;32.25;93963.69;5062676;28;20784;-55
2022/04/09 08:44:35;;;;;;;8.73;1.70;;;25.00;41.60;;;25.27;31.09;93961.31;5060839;28;21041;-56
2022/04/09 08:47:03;;;;;;;8.73;2.47;;;25.00;40.70;;;25.28;31.08;93960.22;5054272;28;20451;-56
2022/04/09 08:49:35;;;;;;;23.47;2.43;;;25.00;40.20;;;25.31;30.96;93964.31;5053915;28;20483;-55
2022/04/09 08:52:02;;;;;;;11.10;2.07;;;25.00;40.50;;;25.39;31.41;93956.63;5058482;28;20856;-56
2022/04/09 08:54:30;;;;;;;5.67;1.70;;;25.00;40.80;;;25.48;31.63;93956.94;5059209;28;20459;-54
2022/04/09 08:56:58;;;;;;;6.80;1.73;;;25.10;40.70;;;25.49;31.26;93955.09;5058883;28;20892;-55
2022/04/09 08:59:26;;;;;;;2.33;1.40;;;25.10;40.30;;;25.48;30.49;93964.22;5051818;28;20967;-56
2022/04/09 09:01:54;;;;;;;4.80;1.40;;;25.10;40.10;;;25.58;30.75;93950.88;5059511;28;20906;-56
2022/04/09 09:04:21;;;;;;;4.70;1.90;;;25.10;40.30;;;25.78;30.51;93952.91;5059785;28;21046;-56
2022/04/09 09:06:50;;;;;;;7.60;1.77;;;25.30;39.70;;;25.95;30.81;93944.69;5058813;28;20444;-56
2022/04/09 09:09:27;;;;;;;4.43;1.67;;;25.40;39.80;;;26.18;29.89;93950.78;5055893;28;20459;-55
2022/04/09 09:11:54;;;;;;;3.90;1.60;;;25.60;39.20;;;26.52;30.02;93942.34;5054836;28;20470;-56
2022/04/09 09:14:26;;;;;;;5.27;1.40;;;25.90;39.40;;;26.94;29.74;93939.59;5058140;28;20521;-57
2022/04/09 09:16:55;;;;;;;1.70;1.30;;;26.30;39.20;;;27.25;29.57;93941.53;5055992;28;20919;-57
2022/04/09 09:19:22;;;;;;;14.43;2.37;;;26.60;38.40;;;27.41;29.24;93951.34;5057483;28;20906;-54
2022/04/09 09:21:55;;;;;;;1.63;1.50;;;26.80;38.50;;;27.53;28.98;93954.59;5054753;28;20451;-56
2022/04/09 09:24:22;;;;;;;6.10;2.20;;;26.90;37.60;;;27.51;29.11;93948.66;5050671;28;20498;-55
2022/04/09 09:26:58;;;;;;;2.53;1.20;;;27.00;37.50;;;27.35;28.44;93953.22;5053970;28;20544;-56
2022/04/09 09:29:27;;;;;;;2.17;1.20;;;26.90;37.10;;;27.11;29.04;93944.78;5058595;28;20970;-57
2022/04/09 09:31:55;;;;;;;4.97;1.70;;;26.70;37.30;;;26.89;29.33;93931.47;5055766;28;20454;-55
2022/04/09 09:34:23;;;;;;;7.77;1.60;;;26.50;37.30;;;26.65;28.99;93939.19;5049708;28;20448;-55
2022/04/09 09:36:50;;;;;;;2.90;1.80;;;26.30;37.20;;;26.36;29.37;93936.88;5055643;28;20882;-56
2022/04/09 09:39:20;;;;;;;5.73;2.00;;;26.00;37.40;;;26.06;29.32;93940.22;5056858;28;20933;-55
2022/04/09 09:41:50;;;;;;;6.30;1.80;;;25.70;37.70;;;25.90;29.71;93933.84;5058367;28;21025;-56
2022/04/09 09:44:17;;;;;;;3.80;1.97;;;25.50;37.90;;;25.87;29.72;93926.28;5056150;28;20459;-57
2022/04/09 09:46:46;;;;;;;1.57;1.40;;;25.40;38.40;;;26.07;30.33;93929.19;5051727;28;20489;-55
2022/04/09 09:49:14;;;;;;;8.93;2.17;;;25.60;38.80;;;26.43;29.62;93936.63;5051076;28;21027;-56
2022/04/09 09:51:42;;;;;;;2.77;2.50;;;25.80;38.70;;;26.81;29.62;93929.28;5059730;28;20482;-56
2022/04/09 09:54:11;;;;;;;1.60;1.40;;;26.20;38.50;;;27.20;29.24;93928.84;5056867;28;20888;-56
2022/04/09 09:56:41;;;;;;;2.70;1.50;;;26.50;38.70;;;27.57;28.85;93916.25;5061610;28;20533;-56
2022/04/09 09:59:09;;;;;;;2.73;1.33;;;26.90;37.00;;;28.01;29.07;93915.69;5050714;28;20860;-55
2022/04/09 10:01:39;;;;;;;4.30;1.73;;;27.30;37.70;;;28.50;28.42;93908.84;5054002;28;20497;-56
2022/04/09 10:04:07;;;;;;;3.37;1.30;;;27.70;37.10;;;28.93;27.65;93893.78;5056631;28;20848;-55
2022/04/09 10:06:35;;;;;;;9.17;1.63;;;28.20;35.80;;;29.23;25.68;93896.63;5054471;28;20527;-56
2022/04/09 10:09:05;;;;;;;4.60;1.87;;;28.50;33.80;;;29.46;26.66;93895.91;5054604;28;20455;-56
2022/04/09 10:11:35;;;;;;;3.83;1.67;;;28.80;34.50;;;29.79;26.31;93892.69;5049710;28;20854;-57
2022/04/09 10:14:04;;;;;;;7.93;1.73;;;29.10;33.90;;;29.96;24.95;93884.97;5050092;28;20458;-58
2022/04/09 10:16:35;;;;;;;3.30;1.57;;;29.30;32.90;;;30.03;24.58;93881.94;5054746;28;20502;-56
2022/04/09 10:19:05;;;;;;;2.87;1.43;;;29.40;33.10;;;30.22;23.94;93887.41;5050523;28;20455;-55
2022/04/09 10:21:34;;;;;;;2.03;1.33;;;29.60;31.70;;;30.36;24.62;93884.81;5052263;28;20560;-57
2022/04/09 10:24:03;;;;;;;9.80;2.87;;;29.70;31.60;;;30.22;24.27;93887.41;5058155;28;20451;-56